sensor_id;sensor_type;location;lat;lon;timestamp;pressure;altitude;pressure_sealevel;temperature;humidity
4972;BME280;2501;51.214;6.768;2024-02-21T00:01:06;102078.53;;;8.66;100.00
4972;BME280;2501;51.214;6.768;2024-02-21T00:03:35;102091.22;;;8.55;100.00
4972;BME280;2501;51.214;6.768;2024-02-21T00:06:04;102074.19;;;8.66;100.00
4972;BME280;2501;51.214;6.768;2024-02-21T00:08:35;102081.94;;;8.89;100.00
4972;BME280;2501;51.214;6.768;2024-02-21T00:11:04;102069.22;;;8.74;100.00
4972;BME280;2501;51.214;6.768;2024-02-21T00:13:32;102063.22;;;8.77;100.00
4972;BME280;2501;51.214;6.768;2024-02-21T00:16:00;102070.38;;;8.57;100.00
4972;BME280;2501;51.214;6.768;2024-02-21T00:18:29;102065.19;;;8.58;100.00
4972;BME280;2501;51.214;6.768;2024-02-21T00:20:57;102057.28;;;8.57;100.00
4972;BME280;2501;51.214;6.768;2024-02-21T00:23:27;102050.16;;;8.53;100.00
4972;BME280;2501;51.214;6.768;2024-02-21T00:25:58;102054.13;;;8.65;100.00
4972;BME280;2501;51.214;6.768;2024-02-21T00:28:26;102059.13;;;8.59;100.00
4972;BME280;2501;51.214;6.768;2024-02-21T00:30:55;102048.56;;;8.56;100.00
4972;BME280;2501;51.214;6.768;2024-02-21T00:33:23;102049.19;;;8.75;100.00
4972;BME280;2501;51.214;6.768;2024-02-21T00:35:52;102041.22;;;8.71;100.00
4972;BME280;2501;51.214;6.768;2024-02-21T00:38:20;102025.84;;;8.55;100.00
4972;BME280;2501;51.214;6.768;2024-02-21T00:40:49;102020.78;;;8.60;100.00
4972;BME280;2501;51.214;6.768;2024-02-21T00:43:20;102019.69;;;8.53;100.00
4972;BME280;2501;51.214;6.768;2024-02-21T00:45:49;102028.69;;;8.61;100.00
4972;BME280;2501;51.214;6.768;2024-02-21T00:48:18;102029.41;;;8.57;100.00
4972;BME280;2501;51.214;6.768;2024-02-21T00:50:46;102030.41;;;8.61;100.00
4972;BME280;2501;51.214;6.768;2024-02-21T00:53:15;102027.41;;;8.50;100.00
4972;BME280;2501;51.214;6.768;2024-02-21T00:55:43;102029.38;;;8.56;100.00
4972;BME280;2501;51.214;6.768;2024-02-21T00:58:11;102023.06;;;8.51;100.00
4972;BME280;2501;51.214;6.768;2024-02-21T01:00:42;102018.22;;;8.61;100.00
4972;BME280;2501;51.214;6.768;2024-02-21T01:03:11;102016.38;;;8.84;100.00
4972;BME280;2501;51.214;6.768;2024-02-21T01:05:39;102023.31;;;8.84;100.00
4972;BME280;2501;51.214;6.768;2024-02-21T01:08:08;102012.28;;;8.65;100.00
4972;BME280;2501;51.214;6.768;2024-02-21T01:10:36;102016.56;;;8.63;100.00
4972;BME280;2501;51.214;6.768;2024-02-21T01:13:04;102011.94;;;8.82;100.00
4972;BME280;2501;51.214;6.768;2024-02-21T01:15:33;102011.97;;;8.83;100.00
4972;BME280;2501;51.214;6.768;2024-02-21T01:18:04;102012.00;;;8.58;100.00
4972;BME280;2501;51.214;6.768;2024-02-21T01:20:32;102000.53;;;8.54;100.00
4972;BME280;2501;51.214;6.768;2024-02-21T01:23:01;101991.81;;;8.54;100.00
4972;BME280;2501;51.214;6.768;2024-02-21T01:25:30;101984.25;;;8.61;100.00
4972;BME280;2501;51.214;6.768;2024-02-21T01:27:58;101984.00;;;8.81;100.00
4972;BME280;2501;51.214;6.768;2024-02-21T01:30:26;101983.25;;;8.58;100.00
4972;BME280;2501;51.214;6.768;2024-02-21T01:32:55;101996.09;;;8.52;100.00
4972;BME280;2501;51.214;6.768;2024-02-21T01:35:26;101982.91;;;8.49;100.00
4972;BME280;2501;51.214;6.768;2024-02-21T01:37:54;101972.78;;;8.58;100.00
4972;BME280;2501;51.214;6.768;2024-02-21T01:40:22;101969.16;;;8.54;100.00
4972;BME280;2501;51.214;6.768;2024-02-21T01:42:51;101959.53;;;8.53;100.00
4972;BME280;2501;51.214;6.768;2024-02-21T01:45:20;101955.09;;;8.51;100.00
4972;BME280;2501;51.214;6.768;2024-02-21T01:47:49;101957.88;;;8.55;100.00
4972;BME280;2501;51.214;6.768;2024-02-21T01:50:18;101952.53;;;8.52;100.00
4972;BME280;2501;51.214;6.768;2024-02-21T01:52:50;101949.81;;;8.49;100.00
4972;BME280;2501;51.214;6.768;2024-02-21T01:55:18;101947.34;;;8.54;100.00
4972;BME280;2501;51.214;6.768;2024-02-21T01:57:46;101952.53;;;8.52;100.00
4972;BME280;2501;51.214;6.768;2024-02-21T02:00:16;101952.44;;;8.49;100.00
4972;BME280;2501;51.214;6.768;2024-02-21T02:02:46;101949.97;;;8.54;100.00
4972;BME280;2501;51.214;6.768;2024-02-21T02:05:15;101931.72;;;8.55;100.00
4972;BME280;2501;51.214;6.768;2024-02-21T02:07:44;101923.53;;;8.45;100.00
4972;BME280;2501;51.214;6.768;2024-02-21T02:10:15;101936.59;;;8.45;100.00
4972;BME280;2501;51.214;6.768;2024-02-21T02:12:43;101924.47;;;8.47;100.00
4972;BME280;2501;51.214;6.768;2024-02-21T02:15:12;101923.66;;;8.48;100.00
4972;BME280;2501;51.214;6.768;2024-02-21T02:17:43;101913.88;;;8.42;100.00
4972;BME280;2501;51.214;6.768;2024-02-21T02:20:12;101914.94;;;8.49;100.00
4972;BME280;2501;51.214;6.768;2024-02-21T02:22:43;101900.13;;;8.48;100.00
4972;BME280;2501;51.214;6.768;2024-02-21T02:25:17;101902.63;;;8.45;100.00
4972;BME280;2501;51.214;6.768;2024-02-21T02:27:45;101903.56;;;8.47;100.00
4972;BME280;2501;51.214;6.768;2024-02-21T02:30:14;101893.94;;;8.46;100.00
4972;BME280;2501;51.214;6.768;2024-02-21T02:32:44;101886.88;;;8.43;100.00
4972;BME280;2501;51.214;6.768;2024-02-21T02:35:13;101890.38;;;8.44;100.00
4972;BME280;2501;51.214;6.768;2024-02-21T02:37:47;101885.84;;;8.38;100.00
4972;BME280;2501;51.214;6.768;2024-02-21T02:40:18;101894.88;;;8.48;100.00
4972;BME280;2501;51.214;6.768;2024-02-21T02:42:47;101894.97;;;8.51;100.00
4972;BME280;2501;51.214;6.768;2024-02-21T02:45:17;101886.84;;;8.42;100.00
4972;BME280;2501;51.214;6.768;2024-02-21T02:47:45;101884.31;;;8.45;100.00
4972;BME280;2501;51.214;6.768;2024-02-21T02:50:14;101891.31;;;8.46;100.00
4972;BME280;2501;51.214;6.768;2024-02-21T02:52:42;101894.00;;;8.49;100.00
4972;BME280;2501;51.214;6.768;2024-02-21T02:55:11;101883.53;;;8.47;100.00
4972;BME280;2501;51.214;6.768;2024-02-21T02:57:42;101894.13;;;8.52;100.00
4972;BME280;2501;51.214;6.768;2024-02-21T03:00:12;101882.19;;;8.60;100.00
4972;BME280;2501;51.214;6.768;2024-02-21T03:02:42;101858.91;;;8.96;100.00
4972;BME280;2501;51.214;6.768;2024-02-21T03:05:13;101857.81;;;8.61;100.00
4972;BME280;2501;51.214;6.768;2024-02-21T03:07:42;101853.00;;;8.46;100.00
4972;BME280;2501;51.214;6.768;2024-02-21T03:10:12;101852.13;;;8.46;100.00
4972;BME280;2501;51.214;6.768;2024-02-21T03:12:44;101846.94;;;8.47;100.00
4972;BME280;2501;51.214;6.768;2024-02-21T03:15:13;101850.72;;;8.57;100.00
4972;BME280;2501;51.214;6.768;2024-02-21T03:17:42;101849.97;;;8.61;100.00
4972;BME280;2501;51.214;6.768;2024-02-21T03:20:11;101834.84;;;8.79;100.00
4972;BME280;2501;51.214;6.768;2024-02-21T03:22:40;101835.72;;;8.51;100.00
4972;BME280;2501;51.214;6.768;2024-02-21T03:25:09;101823.25;;;8.43;100.00
4972;BME280;2501;51.214;6.768;2024-02-21T03:27:38;101822.25;;;8.39;100.00
4972;BME280;2501;51.214;6.768;2024-02-21T03:30:10;101819.84;;;8.45;100.00
4972;BME280;2501;51.214;6.768;2024-02-21T03:32:38;101832.25;;;8.52;100.00
4972;BME280;2501;51.214;6.768;2024-02-21T03:35:07;101829.22;;;8.65;100.00
4972;BME280;2501;51.214;6.768;2024-02-21T03:37:35;101830.78;;;8.60;100.00
4972;BME280;2501;51.214;6.768;2024-02-21T03:40:07;101827.81;;;8.50;100.00
4972;BME280;2501;51.214;6.768;2024-02-21T03:42:37;101825.91;;;8.44;100.00
4972;BME280;2501;51.214;6.768;2024-02-21T03:45:09;101826.84;;;8.46;100.00
4972;BME280;2501;51.214;6.768;2024-02-21T03:47:38;101833.16;;;8.53;100.00
4972;BME280;2501;51.214;6.768;2024-02-21T03:50:07;101825.28;;;8.80;100.00
4972;BME280;2501;51.214;6.768;2024-02-21T03:52:35;101814.75;;;8.50;100.00
4972;BME280;2501;51.214;6.768;2024-02-21T03:55:04;101819.19;;;8.52;100.00
4972;BME280;2501;51.214;6.768;2024-02-21T03:57:33;101825.19;;;8.48;100.00
4972;BME280;2501;51.214;6.768;2024-02-21T04:00:01;101818.59;;;8.61;100.00
4972;BME280;2501;51.214;6.768;2024-02-21T04:02:34;101815.84;;;8.56;100.00
4972;BME280;2501;51.214;6.768;2024-02-21T04:05:02;101820.31;;;8.60;100.00
4972;BME280;2501;51.214;6.768;2024-02-21T04:07:31;101821.63;;;8.75;100.00
4972;BME280;2501;51.214;6.768;2024-02-21T04:09:59;101809.06;;;8.63;100.00
4972;BME280;2501;51.214;6.768;2024-02-21T04:12:28;101813.06;;;8.52;100.00
4972;BME280;2501;51.214;6.768;2024-02-21T04:14:56;101811.97;;;8.44;100.00
4972;BME280;2501;51.214;6.768;2024-02-21T04:17:24;101803.50;;;8.52;100.00
4972;BME280;2501;51.214;6.768;2024-02-21T04:20:04;101809.72;;;8.56;100.00
4972;BME280;2501;51.214;6.768;2024-02-21T04:22:34;101800.75;;;8.76;100.00
4972;BME280;2501;51.214;6.768;2024-02-21T04:25:03;101794.03;;;8.86;100.00
4972;BME280;2501;51.214;6.768;2024-02-21T04:27:32;101790.94;;;8.69;100.00
4972;BME280;2501;51.214;6.768;2024-02-21T04:30:00;101796.03;;;8.64;100.00
4972;BME280;2501;51.214;6.768;2024-02-21T04:32:29;101800.19;;;8.58;100.00
4972;BME280;2501;51.214;6.768;2024-02-21T04:35:00;101799.00;;;8.47;100.00
4972;BME280;2501;51.214;6.768;2024-02-21T04:37:28;101795.44;;;8.45;100.00
4972;BME280;2501;51.214;6.768;2024-02-21T04:39:57;101800.97;;;8.55;100.00
4972;BME280;2501;51.214;6.768;2024-02-21T04:42:25;101801.56;;;8.45;100.00
4972;BME280;2501;51.214;6.768;2024-02-21T04:44:54;101805.72;;;8.68;100.00
4972;BME280;2501;51.214;6.768;2024-02-21T04:47:22;101801.88;;;8.56;100.00
4972;BME280;2501;51.214;6.768;2024-02-21T04:49:51;101803.84;;;8.63;100.00
4972;BME280;2501;51.214;6.768;2024-02-21T04:52:23;101795.81;;;8.57;100.00
4972;BME280;2501;51.214;6.768;2024-02-21T04:54:51;101793.66;;;8.44;100.00
4972;BME280;2501;51.214;6.768;2024-02-21T04:57:20;101800.34;;;8.62;100.00
4972;BME280;2501;51.214;6.768;2024-02-21T04:59:48;101799.88;;;8.49;100.00
4972;BME280;2501;51.214;6.768;2024-02-21T05:02:16;101794.03;;;8.56;100.00
4972;BME280;2501;51.214;6.768;2024-02-21T05:04:47;101788.09;;;8.61;100.00
4972;BME280;2501;51.214;6.768;2024-02-21T05:07:16;101787.06;;;8.56;100.00
4972;BME280;2501;51.214;6.768;2024-02-21T05:09:47;101788.38;;;8.42;100.00
4972;BME280;2501;51.214;6.768;2024-02-21T05:12:15;101789.72;;;8.58;100.00
4972;BME280;2501;51.214;6.768;2024-02-21T05:14:44;101791.31;;;8.53;100.00
4972;BME280;2501;51.214;6.768;2024-02-21T05:17:12;101783.66;;;8.59;100.00
4972;BME280;2501;51.214;6.768;2024-02-21T05:19:41;101785.03;;;8.46;100.00
4972;BME280;2501;51.214;6.768;2024-02-21T05:22:09;101780.44;;;8.39;100.00
4972;BME280;2501;51.214;6.768;2024-02-21T05:24:39;101776.03;;;8.38;100.00
4972;BME280;2501;51.214;6.768;2024-02-21T05:27:10;101773.69;;;8.46;100.00
4972;BME280;2501;51.214;6.768;2024-02-21T05:29:38;101775.25;;;8.41;100.00
4972;BME280;2501;51.214;6.768;2024-02-21T05:32:07;101771.84;;;8.43;100.00
4972;BME280;2501;51.214;6.768;2024-02-21T05:34:35;101764.81;;;8.41;100.00
4972;BME280;2501;51.214;6.768;2024-02-21T05:37:04;101767.47;;;8.42;100.00
4972;BME280;2501;51.214;6.768;2024-02-21T05:39:32;101755.97;;;8.37;100.00
4972;BME280;2501;51.214;6.768;2024-02-21T05:42:00;101763.84;;;8.38;100.00
4972;BME280;2501;51.214;6.768;2024-02-21T05:44:31;101770.03;;;8.41;100.00
4972;BME280;2501;51.214;6.768;2024-02-21T05:47:00;101763.03;;;8.40;100.00
4972;BME280;2501;51.214;6.768;2024-02-21T05:49:28;101768.31;;;8.41;100.00
4972;BME280;2501;51.214;6.768;2024-02-21T05:51:57;101763.91;;;8.40;100.00
4972;BME280;2501;51.214;6.768;2024-02-21T05:54:26;101771.69;;;8.38;100.00
4972;BME280;2501;51.214;6.768;2024-02-21T05:56:54;101765.53;;;8.36;100.00
4972;BME280;2501;51.214;6.768;2024-02-21T05:59:22;101755.97;;;8.37;100.00
4972;BME280;2501;51.214;6.768;2024-02-21T06:01:58;101751.72;;;8.41;100.00
4972;BME280;2501;51.214;6.768;2024-02-21T06:04:28;101756.72;;;8.33;100.00
4972;BME280;2501;51.214;6.768;2024-02-21T06:06:57;101738.56;;;8.37;100.00
4972;BME280;2501;51.214;6.768;2024-02-21T06:09:25;101735.84;;;8.34;100.00
4972;BME280;2501;51.214;6.768;2024-02-21T06:11:54;101725.34;;;8.33;100.00
4972;BME280;2501;51.214;6.768;2024-02-21T06:14:22;101723.81;;;8.40;100.00
4972;BME280;2501;51.214;6.768;2024-02-21T06:16:51;101723.72;;;8.36;100.00
4972;BME280;2501;51.214;6.768;2024-02-21T06:19:22;101726.38;;;8.38;100.00
4972;BME280;2501;51.214;6.768;2024-02-21T06:21:50;101726.38;;;8.38;100.00
4972;BME280;2501;51.214;6.768;2024-02-21T06:24:18;101717.84;;;8.44;100.00
4972;BME280;2501;51.214;6.768;2024-02-21T06:26:47;101723.81;;;8.40;100.00
4972;BME280;2501;51.214;6.768;2024-02-21T06:29:15;101717.59;;;8.36;100.00
4972;BME280;2501;51.214;6.768;2024-02-21T06:31:44;101711.56;;;8.38;100.00
4972;BME280;2501;51.214;6.768;2024-02-21T06:34:12;101708.13;;;8.40;100.00
4972;BME280;2501;51.214;6.768;2024-02-21T06:36:44;101706.34;;;8.38;100.00
4972;BME280;2501;51.214;6.768;2024-02-21T06:39:13;101702.00;;;8.39;100.00
4972;BME280;2501;51.214;6.768;2024-02-21T06:41:41;101693.28;;;8.38;100.00
4972;BME280;2501;51.214;6.768;2024-02-21T06:44:10;101689.78;;;8.38;100.00
4972;BME280;2501;51.214;6.768;2024-02-21T06:46:38;101687.03;;;8.33;100.00
4972;BME280;2501;51.214;6.768;2024-02-21T06:49:07;101687.84;;;8.32;100.00
4972;BME280;2501;51.214;6.768;2024-02-21T06:51:43;101685.38;;;8.37;100.00
4972;BME280;2501;51.214;6.768;2024-02-21T06:54:12;101679.31;;;8.38;100.00
4972;BME280;2501;51.214;6.768;2024-02-21T06:56:40;101687.22;;;8.40;100.00
4972;BME280;2501;51.214;6.768;2024-02-21T06:59:09;101685.53;;;8.42;100.00
4972;BME280;2501;51.214;6.768;2024-02-21T07:01:45;101676.00;;;8.44;100.00
4972;BME280;2501;51.214;6.768;2024-02-21T07:04:13;101684.59;;;8.40;100.00
4972;BME280;2501;51.214;6.768;2024-02-21T07:06:44;101683.81;;;8.42;100.00
4972;BME280;2501;51.214;6.768;2024-02-21T07:09:12;101685.50;;;8.40;100.00
4972;BME280;2501;51.214;6.768;2024-02-21T07:11:41;101682.09;;;8.43;100.00
4972;BME280;2501;51.214;6.768;2024-02-21T07:14:09;101686.47;;;8.44;100.00
4972;BME280;2501;51.214;6.768;2024-02-21T07:16:38;101691.00;;;8.51;100.00
4972;BME280;2501;51.214;6.768;2024-02-21T07:19:06;101690.31;;;8.56;100.00
4972;BME280;2501;51.214;6.768;2024-02-21T07:21:35;101686.78;;;8.54;100.00
4972;BME280;2501;51.214;6.768;2024-02-21T07:24:09;101683.69;;;8.69;100.00
4972;BME280;2501;51.214;6.768;2024-02-21T07:26:41;101682.56;;;8.59;100.00
4972;BME280;2501;51.214;6.768;2024-02-21T07:29:09;101680.75;;;8.57;100.00
4972;BME280;2501;51.214;6.768;2024-02-21T07:31:40;101684.78;;;8.76;100.00
4972;BME280;2501;51.214;6.768;2024-02-21T07:34:09;101684.25;;;8.57;100.00
4972;BME280;2501;51.214;6.768;2024-02-21T07:36:37;101679.41;;;8.71;100.00
4972;BME280;2501;51.214;6.768;2024-02-21T07:39:10;101682.53;;;8.89;100.00
4972;BME280;2501;51.214;6.768;2024-02-21T07:41:39;101680.63;;;8.84;100.00
4972;BME280;2501;51.214;6.768;2024-02-21T07:44:10;101679.88;;;8.88;100.00
4972;BME280;2501;51.214;6.768;2024-02-21T07:46:38;101672.25;;;8.64;100.00
4972;BME280;2501;51.214;6.768;2024-02-21T07:49:07;101674.50;;;8.83;100.00
4972;BME280;2501;51.214;6.768;2024-02-21T07:51:35;101674.72;;;8.59;100.00
4972;BME280;2501;51.214;6.768;2024-02-21T07:54:04;101672.31;;;8.67;100.00
4972;BME280;2501;51.214;6.768;2024-02-21T07:56:35;101658.38;;;8.68;100.00
4972;BME280;2501;51.214;6.768;2024-02-21T07:59:03;101656.47;;;8.61;100.00
4972;BME280;2501;51.214;6.768;2024-02-21T08:01:33;101656.81;;;8.73;100.00
4972;BME280;2501;51.214;6.768;2024-02-21T08:04:01;101656.75;;;8.71;100.00
4972;BME280;2501;51.214;6.768;2024-02-21T08:06:30;101647.72;;;8.60;100.00
4972;BME280;2501;51.214;6.768;2024-02-21T08:08:59;101644.38;;;8.66;100.00
4972;BME280;2501;51.214;6.768;2024-02-21T08:11:28;101638.16;;;8.61;100.00
4972;BME280;2501;51.214;6.768;2024-02-21T08:13:59;101642.16;;;8.80;100.00
4972;BME280;2501;51.214;6.768;2024-02-21T08:16:28;101623.88;;;8.80;100.00
4972;BME280;2501;51.214;6.768;2024-02-21T08:18:57;101622.19;;;8.82;100.00
4972;BME280;2501;51.214;6.768;2024-02-21T08:21:27;101622.16;;;9.15;100.00
4972;BME280;2501;51.214;6.768;2024-02-21T08:23:56;101607.19;;;8.76;100.00
4972;BME280;2501;51.214;6.768;2024-02-21T08:26:24;101610.59;;;8.73;100.00
4972;BME280;2501;51.214;6.768;2024-02-21T08:28:59;101600.91;;;8.69;100.00
4972;BME280;2501;51.214;6.768;2024-02-21T08:31:28;101595.53;;;8.63;100.00
4972;BME280;2501;51.214;6.768;2024-02-21T08:33:57;101597.16;;;8.60;100.00
4972;BME280;2501;51.214;6.768;2024-02-21T08:36:28;101597.47;;;8.72;100.00
4972;BME280;2501;51.214;6.768;2024-02-21T08:38:58;101592.34;;;8.75;100.00
4972;BME280;2501;51.214;6.768;2024-02-21T08:41:26;101602.00;;;8.78;100.00
4972;BME280;2501;51.214;6.768;2024-02-21T08:43:55;101595.63;;;8.99;100.00
4972;BME280;2501;51.214;6.768;2024-02-21T08:46:26;101589.59;;;8.70;100.00
4972;BME280;2501;51.214;6.768;2024-02-21T08:48:54;101581.28;;;8.54;100.00
4972;BME280;2501;51.214;6.768;2024-02-21T08:51:23;101577.59;;;8.46;100.00
4972;BME280;2501;51.214;6.768;2024-02-21T08:53:52;101586.44;;;8.51;100.00
4972;BME280;2501;51.214;6.768;2024-02-21T08:56:21;101582.41;;;8.62;100.00
4972;BME280;2501;51.214;6.768;2024-02-21T08:58:49;101572.78;;;8.61;100.00
4972;BME280;2501;51.214;6.768;2024-02-21T09:01:17;101569.59;;;8.40;100.00
4972;BME280;2501;51.214;6.768;2024-02-21T09:03:49;101569.72;;;8.44;100.00
4972;BME280;2501;51.214;6.768;2024-02-21T09:06:19;101558.78;;;8.59;100.00
4972;BME280;2501;51.214;6.768;2024-02-21T09:08:47;101555.84;;;8.47;100.00
4972;BME280;2501;51.214;6.768;2024-02-21T09:11:16;101554.53;;;8.62;100.00
4972;BME280;2501;51.214;6.768;2024-02-21T09:13:44;101546.69;;;8.97;100.00
4972;BME280;2501;51.214;6.768;2024-02-21T09:16:13;101544.03;;;8.95;100.00
4972;BME280;2501;51.214;6.768;2024-02-21T09:18:41;101542.91;;;8.86;100.00
4972;BME280;2501;51.214;6.768;2024-02-21T09:21:12;101537.88;;;8.59;100.00
4972;BME280;2501;51.214;6.768;2024-02-21T09:23:41;101531.88;;;8.63;100.00
4972;BME280;2501;51.214;6.768;2024-02-21T09:26:09;101528.81;;;8.79;100.00
4972;BME280;2501;51.214;6.768;2024-02-21T09:28:41;101520.16;;;8.82;100.00
4972;BME280;2501;51.214;6.768;2024-02-21T09:31:10;101526.78;;;8.69;100.00
4972;BME280;2501;51.214;6.768;2024-02-21T09:33:39;101516.84;;;8.89;100.00
4972;BME280;2501;51.214;6.768;2024-02-21T09:36:07;101520.16;;;8.82;100.00
4972;BME280;2501;51.214;6.768;2024-02-21T09:38:39;101514.88;;;8.80;100.00
4972;BME280;2501;51.214;6.768;2024-02-21T09:41:15;101505.09;;;8.73;100.00
4972;BME280;2501;51.214;6.768;2024-02-21T09:43:45;101499.97;;;8.76;100.00
4972;BME280;2501;51.214;6.768;2024-02-21T09:46:17;101498.38;;;8.83;100.00
4972;BME280;2501;51.214;6.768;2024-02-21T09:48:58;101495.53;;;8.73;100.00
4972;BME280;2501;51.214;6.768;2024-02-21T09:51:34;101492.06;;;8.75;100.00
4972;BME280;2501;51.214;6.768;2024-02-21T09:54:07;101490.25;;;8.72;100.00
4972;BME280;2501;51.214;6.768;2024-02-21T09:56:36;101481.66;;;8.76;100.00
4972;BME280;2501;51.214;6.768;2024-02-21T09:59:04;101498.47;;;8.87;100.00
4972;BME280;2501;51.214;6.768;2024-02-21T10:01:33;101488.91;;;8.88;100.00
4972;BME280;2501;51.214;6.768;2024-02-21T10:04:02;101493.41;;;8.93;100.00
4972;BME280;2501;51.214;6.768;2024-02-21T10:06:31;101487.44;;;8.99;100.00
4972;BME280;2501;51.214;6.768;2024-02-21T10:09:00;101480.59;;;9.05;100.00
4972;BME280;2501;51.214;6.768;2024-02-21T10:11:31;101491.03;;;9.04;100.00
4972;BME280;2501;51.214;6.768;2024-02-21T10:14:03;101483.56;;;9.21;100.00
4972;BME280;2501;51.214;6.768;2024-02-21T10:16:33;101470.81;;;8.97;100.00
4972;BME280;2501;51.214;6.768;2024-02-21T10:19:02;101479.09;;;9.15;100.00
4972;BME280;2501;51.214;6.768;2024-02-21T10:21:31;101473.84;;;9.14;100.00
4972;BME280;2501;51.214;6.768;2024-02-21T10:23:59;101467.41;;;9.01;100.00
4972;BME280;2501;51.214;6.768;2024-02-21T10:26:28;101463.50;;;9.20;100.00
4972;BME280;2501;51.214;6.768;2024-02-21T10:29:01;101465.19;;;9.16;100.00
4972;BME280;2501;51.214;6.768;2024-02-21T10:31:30;101453.16;;;9.26;100.00
4972;BME280;2501;51.214;6.768;2024-02-21T10:34:00;101451.69;;;9.38;100.00
4972;BME280;2501;51.214;6.768;2024-02-21T10:36:28;101450.50;;;9.24;100.00
4972;BME280;2501;51.214;6.768;2024-02-21T10:38:57;101436.31;;;9.52;100.00
4972;BME280;2501;51.214;6.768;2024-02-21T10:41:26;101432.66;;;9.46;100.00
4972;BME280;2501;51.214;6.768;2024-02-21T10:43:55;101431.53;;;9.33;100.00
4972;BME280;2501;51.214;6.768;2024-02-21T10:46:26;101417.91;;;9.49;100.00
4972;BME280;2501;51.214;6.768;2024-02-21T10:49:03;101420.25;;;9.37;100.00
4972;BME280;2501;51.214;6.768;2024-02-21T10:51:33;101408.00;;;9.36;100.00
4972;BME280;2501;51.214;6.768;2024-02-21T10:54:13;101404.00;;;9.53;100.00
4972;BME280;2501;51.214;6.768;2024-02-21T10:56:45;101391.03;;;9.59;100.00
4972;BME280;2501;51.214;6.768;2024-02-21T10:59:14;101381.72;;;9.73;100.00
4972;BME280;2501;51.214;6.768;2024-02-21T11:01:45;101375.47;;;9.65;100.00
4972;BME280;2501;51.214;6.768;2024-02-21T11:04:14;101376.28;;;9.63;100.00
4972;BME280;2501;51.214;6.768;2024-02-21T11:06:42;101363.97;;;10.04;100.00
4972;BME280;2501;51.214;6.768;2024-02-21T11:09:11;101357.38;;;9.79;100.00
4972;BME280;2501;51.214;6.768;2024-02-21T11:11:40;101339.88;;;9.76;100.00
4972;BME280;2501;51.214;6.768;2024-02-21T11:14:10;101334.97;;;9.95;100.00
4972;BME280;2501;51.214;6.768;2024-02-21T11:16:40;101327.81;;;9.88;100.00
4972;BME280;2501;51.214;6.768;2024-02-21T11:19:19;101309.00;;;10.10;100.00
4972;BME280;2501;51.214;6.768;2024-02-21T11:21:48;101295.75;;;9.99;100.00
4972;BME280;2501;51.214;6.768;2024-02-21T11:24:25;101289.47;;;9.91;100.00
4972;BME280;2501;51.214;6.768;2024-02-21T11:26:54;101274.94;;;10.10;100.00
4972;BME280;2501;51.214;6.768;2024-02-21T11:29:26;101277.59;;;10.11;100.00
4972;BME280;2501;51.214;6.768;2024-02-21T11:31:54;101264.34;;;10.02;100.00
4972;BME280;2501;51.214;6.768;2024-02-21T11:34:26;101254.75;;;10.03;100.00
4972;BME280;2501;51.214;6.768;2024-02-21T11:36:55;101252.06;;;10.00;100.00
4972;BME280;2501;51.214;6.768;2024-02-21T11:39:24;101239.03;;;10.03;100.00
4972;BME280;2501;51.214;6.768;2024-02-21T11:42:03;101239.63;;;9.87;100.00
4972;BME280;2501;51.214;6.768;2024-02-21T11:44:34;101226.72;;;9.99;100.00
4972;BME280;2501;51.214;6.768;2024-02-21T11:47:03;101223.13;;;9.94;100.00
4972;BME280;2501;51.214;6.768;2024-02-21T11:49:36;101217.16;;;10.01;100.00
4972;BME280;2501;51.214;6.768;2024-02-21T11:52:06;101211.06;;;10.03;100.00
4972;BME280;2501;51.214;6.768;2024-02-21T11:54:34;101204.94;;;10.04;100.00
4972;BME280;2501;51.214;6.768;2024-02-21T11:57:03;101186.69;;;10.09;100.00
4972;BME280;2501;51.214;6.768;2024-02-21T11:59:32;101163.00;;;10.04;100.00
4972;BME280;2501;51.214;6.768;2024-02-21T12:02:01;101136.81;;;10.04;100.00
4972;BME280;2501;51.214;6.768;2024-02-21T12:04:30;101126.44;;;10.12;100.00
4972;BME280;2501;51.214;6.768;2024-02-21T12:07:02;101121.34;;;10.20;100.00
4972;BME280;2501;51.214;6.768;2024-02-21T12:09:31;101126.50;;;10.15;100.00
4972;BME280;2501;51.214;6.768;2024-02-21T12:12:03;101111.56;;;10.11;100.00
4972;BME280;2501;51.214;6.768;2024-02-21T12:14:33;101107.38;;;10.19;100.00
4972;BME280;2501;51.214;6.768;2024-02-21T12:17:04;101102.25;;;10.30;100.00
4972;BME280;2501;51.214;6.768;2024-02-21T12:19:33;101092.69;;;10.33;100.00
4972;BME280;2501;51.214;6.768;2024-02-21T12:22:04;101088.53;;;10.51;100.00
4972;BME280;2501;51.214;6.768;2024-02-21T12:24:34;101099.84;;;10.46;100.00
4972;BME280;2501;51.214;6.768;2024-02-21T12:27:04;101095.50;;;10.50;100.00
4972;BME280;2501;51.214;6.768;2024-02-21T12:29:32;101095.72;;;10.68;100.00
4972;BME280;2501;51.214;6.768;2024-02-21T12:32:01;101056.53;;;10.85;100.00
4972;BME280;2501;51.214;6.768;2024-02-21T12:34:30;101060.25;;;11.10;100.00
4972;BME280;2501;51.214;6.768;2024-02-21T12:36:59;101068.31;;;11.31;100.00
4972;BME280;2501;51.214;6.768;2024-02-21T12:39:31;101058.16;;;10.74;100.00
4972;BME280;2501;51.214;6.768;2024-02-21T12:42:00;101073.25;;;10.98;100.00
4972;BME280;2501;51.214;6.768;2024-02-21T12:44:28;101071.41;;;10.85;100.00
4972;BME280;2501;51.214;6.768;2024-02-21T12:46:57;101068.78;;;10.86;100.00
4972;BME280;2501;51.214;6.768;2024-02-21T12:49:25;101059.06;;;10.77;100.00
4972;BME280;2501;51.214;6.768;2024-02-21T12:51:55;101049.59;;;10.90;100.00
4972;BME280;2501;51.214;6.768;2024-02-21T12:54:23;101046.25;;;11.08;100.00
4972;BME280;2501;51.214;6.768;2024-02-21T12:56:54;101039.31;;;11.16;100.00
4972;BME280;2501;51.214;6.768;2024-02-21T12:59:23;101025.28;;;11.14;100.00
4972;BME280;2501;51.214;6.768;2024-02-21T13:01:53;101012.13;;;11.08;100.00
4972;BME280;2501;51.214;6.768;2024-02-21T13:04:22;101005.22;;;11.22;100.00
4972;BME280;2501;51.214;6.768;2024-02-21T13:06:50;101005.22;;;11.22;100.00
4972;BME280;2501;51.214;6.768;2024-02-21T13:09:19;100985.00;;;11.10;100.00
4972;BME280;2501;51.214;6.768;2024-02-21T13:11:48;100983.25;;;11.08;100.00
4972;BME280;2501;51.214;6.768;2024-02-21T13:14:19;100980.69;;;11.19;100.00
4972;BME280;2501;51.214;6.768;2024-02-21T13:16:48;100992.09;;;11.21;100.00
4972;BME280;2501;51.214;6.768;2024-02-21T13:19:16;100986.81;;;11.16;100.00
4972;BME280;2501;51.214;6.768;2024-02-21T13:21:45;100977.16;;;11.13;100.00